sensor_id;sensor_type;location;lat;lon;timestamp;temperature;humidity
32839;DHT22;19182;41.820;12.808;2023-07-24T00:02:06;24.70;99.90
32839;DHT22;19182;41.820;12.808;2023-07-24T00:04:32;24.60;99.90
32839;DHT22;19182;41.820;12.808;2023-07-24T00:06:58;24.50;99.90
32839;DHT22;19182;41.820;12.808;2023-07-24T00:09:24;24.60;99.90
32839;DHT22;19182;41.820;12.808;2023-07-24T00:11:49;24.50;99.90
32839;DHT22;19182;41.820;12.808;2023-07-24T00:14:16;24.40;99.90
32839;DHT22;19182;41.820;12.808;2023-07-24T00:16:41;24.30;99.90
32839;DHT22;19182;41.820;12.808;2023-07-24T00:19:07;24.40;99.90
32839;DHT22;19182;41.820;12.808;2023-07-24T00:21:33;24.50;99.90
32839;DHT22;19182;41.820;12.808;2023-07-24T00:23:59;24.50;99.90
32839;DHT22;19182;41.820;12.808;2023-07-24T00:26:24;24.60;99.90
32839;DHT22;19182;41.820;12.808;2023-07-24T00:28:50;24.50;99.90
32839;DHT22;19182;41.820;12.808;2023-07-24T00:31:16;24.40;99.90
32839;DHT22;19182;41.820;12.808;2023-07-24T00:33:43;24.40;99.90
32839;DHT22;19182;41.820;12.808;2023-07-24T00:36:08;24.50;99.90
32839;DHT22;19182;41.820;12.808;2023-07-24T00:38:34;24.40;99.90
32839;DHT22;19182;41.820;12.808;2023-07-24T00:41:00;24.50;99.90
32839;DHT22;19182;41.820;12.808;2023-07-24T00:43:25;24.50;99.90
32839;DHT22;19182;41.820;12.808;2023-07-24T00:45:51;24.30;99.90
32839;DHT22;19182;41.820;12.808;2023-07-24T00:48:18;24.40;99.90
32839;DHT22;19182;41.820;12.808;2023-07-24T00:50:45;24.40;99.90
32839;DHT22;19182;41.820;12.808;2023-07-24T00:53:11;24.40;99.90
32839;DHT22;19182;41.820;12.808;2023-07-24T00:55:38;24.40;99.90
32839;DHT22;19182;41.820;12.808;2023-07-24T00:58:04;24.50;99.90
32839;DHT22;19182;41.820;12.808;2023-07-24T01:00:30;24.50;99.90
32839;DHT22;19182;41.820;12.808;2023-07-24T01:02:56;24.50;99.90
32839;DHT22;19182;41.820;12.808;2023-07-24T01:05:25;24.50;99.90
32839;DHT22;19182;41.820;12.808;2023-07-24T01:07:52;24.50;99.90
32839;DHT22;19182;41.820;12.808;2023-07-24T01:10:18;24.50;99.90
32839;DHT22;19182;41.820;12.808;2023-07-24T01:15:32;24.50;99.90
32839;DHT22;19182;41.820;12.808;2023-07-24T01:18:11;24.50;99.90
32839;DHT22;19182;41.820;12.808;2023-07-24T01:20:42;24.50;99.90
32839;DHT22;19182;41.820;12.808;2023-07-24T01:26:00;24.40;99.90
32839;DHT22;19182;41.820;12.808;2023-07-24T01:28:28;24.40;99.90
32839;DHT22;19182;41.820;12.808;2023-07-24T01:30:54;24.40;99.90
32839;DHT22;19182;41.820;12.808;2023-07-24T01:33:21;24.40;99.90
32839;DHT22;19182;41.820;12.808;2023-07-24T01:35:55;24.40;99.90
32839;DHT22;19182;41.820;12.808;2023-07-24T01:38:24;24.50;99.90
32839;DHT22;19182;41.820;12.808;2023-07-24T01:40:52;24.50;99.90
32839;DHT22;19182;41.820;12.808;2023-07-24T01:43:18;24.40;99.90
32839;DHT22;19182;41.820;12.808;2023-07-24T01:45:44;24.40;99.90
32839;DHT22;19182;41.820;12.808;2023-07-24T01:48:09;24.40;99.90
32839;DHT22;19182;41.820;12.808;2023-07-24T01:50:35;24.50;99.90
32839;DHT22;19182;41.820;12.808;2023-07-24T01:53:01;24.50;99.90
32839;DHT22;19182;41.820;12.808;2023-07-24T01:55:27;23.60;99.90
32839;DHT22;19182;41.820;12.808;2023-07-24T01:57:53;24.40;99.90
32839;DHT22;19182;41.820;12.808;2023-07-24T02:00:19;24.40;99.90
32839;DHT22;19182;41.820;12.808;2023-07-24T02:02:45;24.30;99.90
32839;DHT22;19182;41.820;12.808;2023-07-24T02:05:10;24.20;99.90
32839;DHT22;19182;41.820;12.808;2023-07-24T02:07:36;24.10;99.90
32839;DHT22;19182;41.820;12.808;2023-07-24T02:10:02;24.20;99.90
32839;DHT22;19182;41.820;12.808;2023-07-24T02:12:28;24.20;99.90
32839;DHT22;19182;41.820;12.808;2023-07-24T02:14:53;24.10;99.90
32839;DHT22;19182;41.820;12.808;2023-07-24T02:17:21;24.20;99.90
32839;DHT22;19182;41.820;12.808;2023-07-24T02:19:47;24.10;99.90
32839;DHT22;19182;41.820;12.808;2023-07-24T02:22:13;24.00;99.90
32839;DHT22;19182;41.820;12.808;2023-07-24T02:24:39;24.00;99.90
32839;DHT22;19182;41.820;12.808;2023-07-24T02:27:06;24.10;99.90
32839;DHT22;19182;41.820;12.808;2023-07-24T02:29:31;24.20;99.90
32839;DHT22;19182;41.820;12.808;2023-07-24T02:31:59;24.20;99.90
32839;DHT22;19182;41.820;12.808;2023-07-24T02:34:25;24.10;99.90
32839;DHT22;19182;41.820;12.808;2023-07-24T02:36:53;24.10;99.90
32839;DHT22;19182;41.820;12.808;2023-07-24T02:39:19;24.00;99.90
32839;DHT22;19182;41.820;12.808;2023-07-24T02:41:45;24.00;99.90
32839;DHT22;19182;41.820;12.808;2023-07-24T02:44:12;24.00;99.90
32839;DHT22;19182;41.820;12.808;2023-07-24T02:46:37;24.10;99.90
32839;DHT22;19182;41.820;12.808;2023-07-24T02:49:03;24.00;99.90
32839;DHT22;19182;41.820;12.808;2023-07-24T02:51:33;24.00;99.90
32839;DHT22;19182;41.820;12.808;2023-07-24T02:53:59;24.00;99.90
32839;DHT22;19182;41.820;12.808;2023-07-24T02:56:25;23.90;99.90
32839;DHT22;19182;41.820;12.808;2023-07-24T02:58:50;23.90;99.90
32839;DHT22;19182;41.820;12.808;2023-07-24T03:01:16;23.90;99.90
32839;DHT22;19182;41.820;12.808;2023-07-24T03:03:42;24.00;99.90
32839;DHT22;19182;41.820;12.808;2023-07-24T03:06:08;24.00;99.90
32839;DHT22;19182;41.820;12.808;2023-07-24T03:08:34;24.00;99.90
32839;DHT22;19182;41.820;12.808;2023-07-24T03:11:04;24.10;99.90
32839;DHT22;19182;41.820;12.808;2023-07-24T03:13:29;24.10;99.90
32839;DHT22;19182;41.820;12.808;2023-07-24T03:15:57;24.10;99.90
32839;DHT22;19182;41.820;12.808;2023-07-24T03:18:23;24.20;99.90
32839;DHT22;19182;41.820;12.808;2023-07-24T03:20:49;24.20;99.90
32839;DHT22;19182;41.820;12.808;2023-07-24T03:23:15;24.20;99.90
32839;DHT22;19182;41.820;12.808;2023-07-24T03:25:41;24.20;99.90
32839;DHT22;19182;41.820;12.808;2023-07-24T03:28:06;24.20;99.90
32839;DHT22;19182;41.820;12.808;2023-07-24T03:30:32;24.20;99.90
32839;DHT22;19182;41.820;12.808;2023-07-24T03:32:58;24.00;99.90
32839;DHT22;19182;41.820;12.808;2023-07-24T03:35:24;23.90;99.90
32839;DHT22;19182;41.820;12.808;2023-07-24T03:37:49;23.90;99.90
32839;DHT22;19182;41.820;12.808;2023-07-24T03:40:15;23.90;99.90
32839;DHT22;19182;41.820;12.808;2023-07-24T03:42:41;23.90;99.90
32839;DHT22;19182;41.820;12.808;2023-07-24T03:45:07;23.90;99.90
32839;DHT22;19182;41.820;12.808;2023-07-24T03:47:33;23.80;99.90
32839;DHT22;19182;41.820;12.808;2023-07-24T03:49:59;23.90;99.90
32839;DHT22;19182;41.820;12.808;2023-07-24T03:52:25;23.90;99.90
32839;DHT22;19182;41.820;12.808;2023-07-24T03:54:54;23.80;99.90
32839;DHT22;19182;41.820;12.808;2023-07-24T03:57:19;23.90;99.90
32839;DHT22;19182;41.820;12.808;2023-07-24T03:59:45;23.80;99.90
32839;DHT22;19182;41.820;12.808;2023-07-24T04:02:11;23.80;99.90
32839;DHT22;19182;41.820;12.808;2023-07-24T04:04:37;23.90;99.90
32839;DHT22;19182;41.820;12.808;2023-07-24T04:07:03;23.80;99.90
32839;DHT22;19182;41.820;12.808;2023-07-24T04:09:29;23.80;99.90
32839;DHT22;19182;41.820;12.808;2023-07-24T04:11:55;23.80;99.90
32839;DHT22;19182;41.820;12.808;2023-07-24T04:14:22;23.80;99.90
32839;DHT22;19182;41.820;12.808;2023-07-24T04:16:48;23.80;99.90
32839;DHT22;19182;41.820;12.808;2023-07-24T04:19:13;23.80;99.90
32839;DHT22;19182;41.820;12.808;2023-07-24T04:21:39;23.70;99.90
32839;DHT22;19182;41.820;12.808;2023-07-24T04:24:06;23.70;99.90
32839;DHT22;19182;41.820;12.808;2023-07-24T04:26:32;23.80;99.90
32839;DHT22;19182;41.820;12.808;2023-07-24T04:28:59;23.90;99.90
32839;DHT22;19182;41.820;12.808;2023-07-24T04:31:24;23.90;99.90
32839;DHT22;19182;41.820;12.808;2023-07-24T04:33:50;23.80;99.90
32839;DHT22;19182;41.820;12.808;2023-07-24T04:36:16;23.80;99.90
32839;DHT22;19182;41.820;12.808;2023-07-24T04:38:43;23.90;99.90
32839;DHT22;19182;41.820;12.808;2023-07-24T04:41:09;23.90;99.90
32839;DHT22;19182;41.820;12.808;2023-07-24T04:43:34;24.00;99.90
32839;DHT22;19182;41.820;12.808;2023-07-24T04:46:00;24.00;99.90
32839;DHT22;19182;41.820;12.808;2023-07-24T04:48:26;24.00;99.90
32839;DHT22;19182;41.820;12.808;2023-07-24T04:50:56;24.10;99.90
32839;DHT22;19182;41.820;12.808;2023-07-24T04:53:24;24.20;99.90
32839;DHT22;19182;41.820;12.808;2023-07-24T04:55:49;24.20;99.90
32839;DHT22;19182;41.820;12.808;2023-07-24T04:58:15;24.20;99.90
32839;DHT22;19182;41.820;12.808;2023-07-24T05:00:41;24.20;99.90
32839;DHT22;19182;41.820;12.808;2023-07-24T05:03:06;24.20;99.90
32839;DHT22;19182;41.820;12.808;2023-07-24T05:05:39;24.30;99.90
32839;DHT22;19182;41.820;12.808;2023-07-24T05:08:05;24.30;99.90
32839;DHT22;19182;41.820;12.808;2023-07-24T05:10:36;24.40;99.90
32839;DHT22;19182;41.820;12.808;2023-07-24T05:13:02;24.50;99.90
32839;DHT22;19182;41.820;12.808;2023-07-24T05:15:30;24.60;99.90
32839;DHT22;19182;41.820;12.808;2023-07-24T05:18:14;24.80;99.90
32839;DHT22;19182;41.820;12.808;2023-07-24T05:20:49;25.00;99.90
32839;DHT22;19182;41.820;12.808;2023-07-24T05:23:18;25.10;99.90
32839;DHT22;19182;41.820;12.808;2023-07-24T05:25:44;25.20;99.90
32839;DHT22;19182;41.820;12.808;2023-07-24T05:28:09;25.30;99.90
32839;DHT22;19182;41.820;12.808;2023-07-24T05:30:35;25.30;99.90
32839;DHT22;19182;41.820;12.808;2023-07-24T05:33:04;25.30;99.90
32839;DHT22;19182;41.820;12.808;2023-07-24T05:35:30;25.20;99.90
32839;DHT22;19182;41.820;12.808;2023-07-24T05:37:56;25.30;99.90
32839;DHT22;19182;41.820;12.808;2023-07-24T05:40:22;25.30;99.90
32839;DHT22;19182;41.820;12.808;2023-07-24T05:42:48;25.50;99.90
32839;DHT22;19182;41.820;12.808;2023-07-24T05:45:13;25.40;99.90
32839;DHT22;19182;41.820;12.808;2023-07-24T05:47:43;25.40;99.90
32839;DHT22;19182;41.820;12.808;2023-07-24T05:50:08;25.50;99.90
32839;DHT22;19182;41.820;12.808;2023-07-24T05:52:38;25.60;99.90
32839;DHT22;19182;41.820;12.808;2023-07-24T05:55:05;25.60;99.90
32839;DHT22;19182;41.820;12.808;2023-07-24T05:57:31;25.70;99.90
32839;DHT22;19182;41.820;12.808;2023-07-24T05:59:56;25.60;99.90
32839;DHT22;19182;41.820;12.808;2023-07-24T06:02:22;25.70;99.90
32839;DHT22;19182;41.820;12.808;2023-07-24T06:04:49;25.80;99.90
32839;DHT22;19182;41.820;12.808;2023-07-24T06:07:15;25.80;99.90
32839;DHT22;19182;41.820;12.808;2023-07-24T06:09:41;25.90;99.90
32839;DHT22;19182;41.820;12.808;2023-07-24T06:12:07;26.00;99.90
32839;DHT22;19182;41.820;12.808;2023-07-24T06:14:34;26.10;99.90
32839;DHT22;19182;41.820;12.808;2023-07-24T06:16:59;26.10;99.90
32839;DHT22;19182;41.820;12.808;2023-07-24T06:19:25;26.20;99.90
32839;DHT22;19182;41.820;12.808;2023-07-24T06:21:51;26.30;99.90
32839;DHT22;19182;41.820;12.808;2023-07-24T06:24:17;26.50;99.90
32839;DHT22;19182;41.820;12.808;2023-07-24T06:26:43;26.70;99.90
32839;DHT22;19182;41.820;12.808;2023-07-24T06:29:09;26.70;99.90
32839;DHT22;19182;41.820;12.808;2023-07-24T06:31:34;26.70;99.90
32839;DHT22;19182;41.820;12.808;2023-07-24T06:34:00;26.50;99.90
32839;DHT22;19182;41.820;12.808;2023-07-24T06:36:26;26.40;99.90
32839;DHT22;19182;41.820;12.808;2023-07-24T06:38:51;26.60;99.90
32839;DHT22;19182;41.820;12.808;2023-07-24T06:41:17;26.70;99.90
32839;DHT22;19182;41.820;12.808;2023-07-24T06:43:45;26.70;99.90
32839;DHT22;19182;41.820;12.808;2023-07-24T06:46:11;26.60;99.90
32839;DHT22;19182;41.820;12.808;2023-07-24T06:48:37;26.80;99.90
32839;DHT22;19182;41.820;12.808;2023-07-24T06:51:03;27.10;99.90
32839;DHT22;19182;41.820;12.808;2023-07-24T06:53:28;27.40;99.90
32839;DHT22;19182;41.820;12.808;2023-07-24T06:55:54;27.50;99.90
32839;DHT22;19182;41.820;12.808;2023-07-24T06:58:20;27.30;99.90
32839;DHT22;19182;41.820;12.808;2023-07-24T07:00:45;27.00;99.90
32839;DHT22;19182;41.820;12.808;2023-07-24T07:03:11;26.90;99.90
32839;DHT22;19182;41.820;12.808;2023-07-24T07:05:39;27.10;99.90
32839;DHT22;19182;41.820;12.808;2023-07-24T07:08:05;27.30;99.90
32839;DHT22;19182;41.820;12.808;2023-07-24T07:10:31;27.40;99.90
32839;DHT22;19182;41.820;12.808;2023-07-24T07:12:57;27.70;99.90
32839;DHT22;19182;41.820;12.808;2023-07-24T07:15:26;27.80;99.90
32839;DHT22;19182;41.820;12.808;2023-07-24T07:17:51;27.80;99.90
32839;DHT22;19182;41.820;12.808;2023-07-24T07:20:17;28.00;99.90
32839;DHT22;19182;41.820;12.808;2023-07-24T07:22:43;28.00;99.90
32839;DHT22;19182;41.820;12.808;2023-07-24T07:25:08;28.20;99.90
32839;DHT22;19182;41.820;12.808;2023-07-24T07:27:34;28.50;99.90
32839;DHT22;19182;41.820;12.808;2023-07-24T07:30:00;28.60;99.90
32839;DHT22;19182;41.820;12.808;2023-07-24T07:32:25;28.60;99.90
32839;DHT22;19182;41.820;12.808;2023-07-24T07:34:52;29.00;99.90
32839;DHT22;19182;41.820;12.808;2023-07-24T07:37:18;28.60;99.90
32839;DHT22;19182;41.820;12.808;2023-07-24T07:39:44;28.50;99.90
32839;DHT22;19182;41.820;12.808;2023-07-24T07:42:09;28.70;99.90
32839;DHT22;19182;41.820;12.808;2023-07-24T07:44:35;28.80;99.90
32839;DHT22;19182;41.820;12.808;2023-07-24T07:47:02;29.00;99.90
32839;DHT22;19182;41.820;12.808;2023-07-24T07:49:29;29.20;99.90
32839;DHT22;19182;41.820;12.808;2023-07-24T07:51:55;29.50;99.90
32839;DHT22;19182;41.820;12.808;2023-07-24T07:54:21;29.50;99.90
32839;DHT22;19182;41.820;12.808;2023-07-24T07:56:46;29.60;99.90
32839;DHT22;19182;41.820;12.808;2023-07-24T07:59:13;29.60;99.90
32839;DHT22;19182;41.820;12.808;2023-07-24T08:01:39;29.90;99.90
32839;DHT22;19182;41.820;12.808;2023-07-24T08:04:06;29.80;99.90
32839;DHT22;19182;41.820;12.808;2023-07-24T08:06:31;30.00;99.90
32839;DHT22;19182;41.820;12.808;2023-07-24T08:08:57;30.00;99.90
32839;DHT22;19182;41.820;12.808;2023-07-24T08:11:23;30.10;99.90
32839;DHT22;19182;41.820;12.808;2023-07-24T08:13:49;30.20;99.90
32839;DHT22;19182;41.820;12.808;2023-07-24T08:16:17;30.20;99.90
32839;DHT22;19182;41.820;12.808;2023-07-24T08:18:44;30.20;99.90
32839;DHT22;19182;41.820;12.808;2023-07-24T08:21:10;30.20;99.90
32839;DHT22;19182;41.820;12.808;2023-07-24T08:23:38;30.40;99.90
32839;DHT22;19182;41.820;12.808;2023-07-24T08:26:04;30.80;99.90
32839;DHT22;19182;41.820;12.808;2023-07-24T08:28:30;30.80;99.90
32839;DHT22;19182;41.820;12.808;2023-07-24T08:31:00;30.90;99.90
32839;DHT22;19182;41.820;12.808;2023-07-24T08:33:29;31.00;99.90
32839;DHT22;19182;41.820;12.808;2023-07-24T08:36:05;31.10;99.90
32839;DHT22;19182;41.820;12.808;2023-07-24T08:38:33;31.20;99.90
32839;DHT22;19182;41.820;12.808;2023-07-24T08:41:09;31.30;99.90
32839;DHT22;19182;41.820;12.808;2023-07-24T08:43:37;31.50;99.90
32839;DHT22;19182;41.820;12.808;2023-07-24T08:46:04;31.70;99.90
32839;DHT22;19182;41.820;12.808;2023-07-24T08:48:43;31.60;99.90
32839;DHT22;19182;41.820;12.808;2023-07-24T08:51:16;31.70;99.90
32839;DHT22;19182;41.820;12.808;2023-07-24T08:53:44;31.80;99.90
32839;DHT22;19182;41.820;12.808;2023-07-24T08:56:12;31.50;99.90
32839;DHT22;19182;41.820;12.808;2023-07-24T08:58:38;31.70;99.90
32839;DHT22;19182;41.820;12.808;2023-07-24T09:01:07;31.80;99.90
32839;DHT22;19182;41.820;12.808;2023-07-24T09:03:36;31.80;99.90
32839;DHT22;19182;41.820;12.808;2023-07-24T09:06:02;31.90;99.90
32839;DHT22;19182;41.820;12.808;2023-07-24T09:08:35;31.80;99.90
32839;DHT22;19182;41.820;12.808;2023-07-24T09:11:02;32.00;99.90
32839;DHT22;19182;41.820;12.808;2023-07-24T09:13:29;32.40;99.90
32839;DHT22;19182;41.820;12.808;2023-07-24T09:15:55;32.70;99.90
32839;DHT22;19182;41.820;12.808;2023-07-24T09:18:22;32.80;99.90
32839;DHT22;19182;41.820;12.808;2023-07-24T09:20:48;32.80;99.90
32839;DHT22;19182;41.820;12.808;2023-07-24T09:23:15;32.80;99.90
32839;DHT22;19182;41.820;12.808;2023-07-24T09:25:43;33.80;99.90
32839;DHT22;19182;41.820;12.808;2023-07-24T09:28:20;32.90;99.90
32839;DHT22;19182;41.820;12.808;2023-07-24T09:30:57;32.90;99.90
32839;DHT22;19182;41.820;12.808;2023-07-24T09:33:38;32.90;99.90
32839;DHT22;19182;41.820;12.808;2023-07-24T09:36:05;33.30;99.90
32839;DHT22;19182;41.820;12.808;2023-07-24T09:38:33;33.50;99.90
32839;DHT22;19182;41.820;12.808;2023-07-24T09:41:01;33.50;99.90
32839;DHT22;19182;41.820;12.808;2023-07-24T09:43:28;33.50;99.90
32839;DHT22;19182;41.820;12.808;2023-07-24T09:45:54;33.40;99.90
32839;DHT22;19182;41.820;12.808;2023-07-24T09:48:22;33.70;99.90
32839;DHT22;19182;41.820;12.808;2023-07-24T09:50:52;34.10;99.90
32839;DHT22;19182;41.820;12.808;2023-07-24T09:53:24;34.20;99.90
32839;DHT22;19182;41.820;12.808;2023-07-24T09:56:03;34.40;99.90
32839;DHT22;19182;41.820;12.808;2023-07-24T09:58:34;34.50;99.90
32839;DHT22;19182;41.820;12.808;2023-07-24T10:01:02;34.60;99.90
32839;DHT22;19182;41.820;12.808;2023-07-24T10:03:30;34.80;99.90
32839;DHT22;19182;41.820;12.808;2023-07-24T10:05:57;35.10;99.90
32839;DHT22;19182;41.820;12.808;2023-07-24T10:08:24;34.90;99.90
32839;DHT22;19182;41.820;12.808;2023-07-24T10:10:51;34.90;99.90
32839;DHT22;19182;41.820;12.808;2023-07-24T10:13:19;35.20;99.90
32839;DHT22;19182;41.820;12.808;2023-07-24T10:15:47;35.40;99.90
32839;DHT22;19182;41.820;12.808;2023-07-24T10:18:15;35.90;99.90
32839;DHT22;19182;41.820;12.808;2023-07-24T10:20:42;36.20;99.90
32839;DHT22;19182;41.820;12.808;2023-07-24T10:23:10;36.40;99.90
32839;DHT22;19182;41.820;12.808;2023-07-24T10:25:39;36.20;99.90
32839;DHT22;19182;41.820;12.808;2023-07-24T10:28:10;36.50;99.90
32839;DHT22;19182;41.820;12.808;2023-07-24T10:30:42;36.80;99.90
32839;DHT22;19182;41.820;12.808;2023-07-24T10:35:39;37.20;99.90
32839;DHT22;19182;41.820;12.808;2023-07-24T10:38:09;36.60;99.60
32839;DHT22;19182;41.820;12.808;2023-07-24T10:40:35;36.00;99.90
32839;DHT22;19182;41.820;12.808;2023-07-24T10:43:06;35.90;99.90
32839;DHT22;19182;41.820;12.808;2023-07-24T10:46:01;35.80;99.90
32839;DHT22;19182;41.820;12.808;2023-07-24T10:48:27;35.40;99.90
32839;DHT22;19182;41.820;12.808;2023-07-24T10:50:52;35.60;99.90
32839;DHT22;19182;41.820;12.808;2023-07-24T10:53:20;35.50;99.90
32839;DHT22;19182;41.820;12.808;2023-07-24T10:55:50;35.40;99.90
32839;DHT22;19182;41.820;12.808;2023-07-24T10:58:19;35.20;99.90
32839;DHT22;19182;41.820;12.808;2023-07-24T11:00:48;35.30;99.90
32839;DHT22;19182;41.820;12.808;2023-07-24T11:03:14;35.50;99.90
32839;DHT22;19182;41.820;12.808;2023-07-24T11:05:50;35.50;99.90
32839;DHT22;19182;41.820;12.808;2023-07-24T11:08:18;35.70;99.90
32839;DHT22;19182;41.820;12.808;2023-07-24T11:10:55;35.50;99.90
32839;DHT22;19182;41.820;12.808;2023-07-24T11:13:27;35.50;99.90
32839;DHT22;19182;41.820;12.808;2023-07-24T11:15:53;35.30;99.90
32839;DHT22;19182;41.820;12.808;2023-07-24T11:18:21;35.40;99.90
32839;DHT22;19182;41.820;12.808;2023-07-24T11:20:55;35.30;99.90
32839;DHT22;19182;41.820;12.808;2023-07-24T11:23:22;32.90;99.90
32839;DHT22;19182;41.820;12.808;2023-07-24T11:25:52;35.60;99.90
32839;DHT22;19182;41.820;12.808;2023-07-24T11:28:19;35.80;99.90
32839;DHT22;19182;41.820;12.808;2023-07-24T11:30:45;35.80;99.90
32839;DHT22;19182;41.820;12.808;2023-07-24T11:33:12;36.00;99.90
32839;DHT22;19182;41.820;12.808;2023-07-24T11:35:40;35.90;99.90
32839;DHT22;19182;41.820;12.808;2023-07-24T11:38:09;35.70;99.90
32839;DHT22;19182;41.820;12.808;2023-07-24T11:40:39;35.70;99.90
32839;DHT22;19182;41.820;12.808;2023-07-24T11:43:16;36.10;99.90
32839;DHT22;19182;41.820;12.808;2023-07-24T11:45:43;36.10;99.90
32839;DHT22;19182;41.820;12.808;2023-07-24T11:48:10;36.00;99.90
32839;DHT22;19182;41.820;12.808;2023-07-24T11:50:49;35.70;99.90
32839;DHT22;19182;41.820;12.808;2023-07-24T11:53:37;35.50;99.90
32839;DHT22;19182;41.820;12.808;2023-07-24T11:56:13;34.90;99.90
32839;DHT22;19182;41.820;12.808;2023-07-24T11:58:39;35.30;99.90
32839;DHT22;19182;41.820;12.808;2023-07-24T12:01:05;35.20;99.90
32839;DHT22;19182;41.820;12.808;2023-07-24T12:03:30;35.20;99.90
32839;DHT22;19182;41.820;12.808;2023-07-24T12:05:56;35.00;99.90
32839;DHT22;19182;41.820;12.808;2023-07-24T12:08:34;35.10;99.90
32839;DHT22;19182;41.820;12.808;2023-07-24T12:11:01;35.10;99.90
32839;DHT22;19182;41.820;12.808;2023-07-24T12:13:27;34.90;99.90
32839;DHT22;19182;41.820;12.808;2023-07-24T12:15:54;35.10;99.90
32839;DHT22;19182;41.820;12.808;2023-07-24T12:18:21;35.10;99.90
32839;DHT22;19182;41.820;12.808;2023-07-24T12:20:47;34.80;99.90
32839;DHT22;19182;41.820;12.808;2023-07-24T12:23:13;35.10;99.90
32839;DHT22;19182;41.820;12.808;2023-07-24T12:25:38;35.20;99.90
32839;DHT22;19182;41.820;12.808;2023-07-24T12:28:04;34.90;99.90
32839;DHT22;19182;41.820;12.808;2023-07-24T12:30:30;35.10;99.90
32839;DHT22;19182;41.820;12.808;2023-07-24T12:32:56;34.90;99.90
32839;DHT22;19182;41.820;12.808;2023-07-24T12:35:21;34.90;99.90
32839;DHT22;19182;41.820;12.808;2023-07-24T12:37:53;34.80;99.90
32839;DHT22;19182;41.820;12.808;2023-07-24T12:40:19;34.70;99.90
32839;DHT22;19182;41.820;12.808;2023-07-24T12:42:49;34.60;99.90
32839;DHT22;19182;41.820;12.808;2023-07-24T12:45:15;34.10;99.90
32839;DHT22;19182;41.820;12.808;2023-07-24T12:47:41;34.00;99.90
32839;DHT22;19182;41.820;12.808;2023-07-24T12:50:07;34.20;99.90
32839;DHT22;19182;41.820;12.808;2023-07-24T12:52:32;34.50;99.90
32839;DHT22;19182;41.820;12.808;2023-07-24T12:54:58;35.00;99.90
32839;DHT22;19182;41.820;12.808;2023-07-24T12:57:24;35.30;99.90
32839;DHT22;19182;41.820;12.808;2023-07-24T12:59:51;34.90;99.90
32839;DHT22;19182;41.820;12.808;2023-07-24T13:02:18;34.80;99.90
32839;DHT22;19182;41.820;12.808;2023-07-24T13:04:45;34.50;99.90
32839;DHT22;19182;41.820;12.808;2023-07-24T13:07:11;34.50;99.90
32839;DHT22;19182;41.820;12.808;2023-07-24T13:09:37;34.40;99.90
32839;DHT22;19182;41.820;12.808;2023-07-24T13:12:04;34.20;99.90
32839;DHT22;19182;41.820;12.808;2023-07-24T13:14:32;34.30;99.90
32839;DHT22;19182;41.820;12.808;2023-07-24T13:17:16;34.10;99.90
32839;DHT22;19182;41.820;12.808;2023-07-24T13:19:51;33.90;99.90
32839;DHT22;19182;41.820;12.808;2023-07-24T13:22:20;34.00;99.90
32839;DHT22;19182;41.820;12.808;2023-07-24T13:24:46;33.90;99.90
32839;DHT22;19182;41.820;12.808;2023-07-24T13:27:11;33.90;99.90
32839;DHT22;19182;41.820;12.808;2023-07-24T13:29:37;34.10;99.90
32839;DHT22;19182;41.820;12.808;2023-07-24T13:32:03;34.20;99.90
32839;DHT22;19182;41.820;12.808;2023-07-24T13:34:29;34.30;99.90
32839;DHT22;19182;41.820;12.808;2023-07-24T13:37:00;34.30;99.90
32839;DHT22;19182;41.820;12.808;2023-07-24T13:39:26;34.30;99.90
32839;DHT22;19182;41.820;12.808;2023-07-24T13:41:54;34.20;99.90
32839;DHT22;19182;41.820;12.808;2023-07-24T13:44:20;34.40;99.90
32839;DHT22;19182;41.820;12.808;2023-07-24T13:46:46;34.40;99.90
32839;DHT22;19182;41.820;12.808;2023-07-24T13:49:14;34.30;99.90
32839;DHT22;19182;41.820;12.808;2023-07-24T13:51:39;34.50;99.90
32839;DHT22;19182;41.820;12.808;2023-07-24T13:54:05;34.00;99.90
32839;DHT22;19182;41.820;12.808;2023-07-24T13:56:30;33.90;99.90
32839;DHT22;19182;41.820;12.808;2023-07-24T13:59:02;33.60;99.90
32839;DHT22;19182;41.820;12.808;2023-07-24T14:01:29;33.50;99.90
32839;DHT22;19182;41.820;12.808;2023-07-24T14:04:01;33.60;99.90
32839;DHT22;19182;41.820;12.808;2023-07-24T14:06:26;33.60;99.90
32839;DHT22;19182;41.820;12.808;2023-07-24T14:08:52;33.50;99.90
32839;DHT22;19182;41.820;12.808;2023-07-24T14:11:17;33.20;99.90
32839;DHT22;19182;41.820;12.808;2023-07-24T14:13:44;33.00;99.90
32839;DHT22;19182;41.820;12.808;2023-07-24T14:16:11;32.90;99.90
32839;DHT22;19182;41.820;12.808;2023-07-24T14:18:40;33.10;99.90
32839;DHT22;19182;41.820;12.808;2023-07-24T14:21:06;33.40;99.90
32839;DHT22;19182;41.820;12.808;2023-07-24T14:23:32;32.90;99.90
32839;DHT22;19182;41.820;12.808;2023-07-24T14:25:58;33.10;99.90
32839;DHT22;19182;41.820;12.808;2023-07-24T14:28:25;33.00;99.90
32839;DHT22;19182;41.820;12.808;2023-07-24T14:30:50;32.80;99.90
32839;DHT22;19182;41.820;12.808;2023-07-24T14:33:16;32.80;99.90
32839;DHT22;19182;41.820;12.808;2023-07-24T14:35:51;33.10;99.90
32839;DHT22;19182;41.820;12.808;2023-07-24T14:38:17;33.10;99.90
32839;DHT22;19182;41.820;12.808;2023-07-24T14:40:42;33.10;99.90
32839;DHT22;19182;41.820;12.808;2023-07-24T14:43:08;33.10;99.90
32839;DHT22;19182;41.820;12.808;2023-07-24T14:45:34;33.10;99.90
32839;DHT22;19182;41.820;12.808;2023-07-24T14:48:00;32.90;99.90
32839;DHT22;19182;41.820;12.808;2023-07-24T14:50:25;32.90;99.90
32839;DHT22;19182;41.820;12.808;2023-07-24T14:52:51;32.80;99.90
32839;DHT22;19182;41.820;12.808;2023-07-24T14:55:17;32.60;99.90
32839;DHT22;19182;41.820;12.808;2023-07-24T14:57:42;32.40;99.90
32839;DHT22;19182;41.820;12.808;2023-07-24T15:00:09;32.20;99.90
32839;DHT22;19182;41.820;12.808;2023-07-24T15:02:34;32.00;99.90
32839;DHT22;19182;41.820;12.808;2023-07-24T15:05:00;32.00;99.90
32839;DHT22;19182;41.820;12.808;2023-07-24T15:07:26;32.00;99.90
32839;DHT22;19182;41.820;12.808;2023-07-24T15:09:51;32.00;99.90
32839;DHT22;19182;41.820;12.808;2023-07-24T15:12:23;32.00;99.90
32839;DHT22;19182;41.820;12.808;2023-07-24T15:14:53;32.00;99.90
32839;DHT22;19182;41.820;12.808;2023-07-24T15:17:18;31.30;99.90
32839;DHT22;19182;41.820;12.808;2023-07-24T15:19:45;31.80;99.90
32839;DHT22;19182;41.820;12.808;2023-07-24T15:22:11;31.80;99.90
32839;DHT22;19182;41.820;12.808;2023-07-24T15:24:37;31.90;99.90